createdAt,value
2018-04-22T00:02:36.945Z,16.07
2018-04-22T00:05:07.409Z,14.60
2018-04-22T00:07:37.318Z,9.90
2018-04-22T00:10:08.019Z,15.27
2018-04-22T00:12:38.531Z,17.53
2018-04-22T00:15:09.957Z,14.30
2018-04-22T00:17:40.531Z,12.13
2018-04-22T00:20:11.025Z,14.00
2018-04-22T00:22:41.650Z,15.53
2018-04-22T00:25:12.289Z,11.10
2018-04-22T00:27:42.930Z,13.50
2018-04-22T00:30:14.333Z,11.30
2018-04-22T00:32:45.040Z,14.93
2018-04-22T00:35:16.155Z,13.00
2018-04-22T00:37:47.409Z,10.93
2018-04-22T00:40:18.908Z,16.40
2018-04-22T00:42:47.914Z,11.83
2018-04-22T00:45:18.586Z,14.13
2018-04-22T00:47:50.580Z,17.13
2018-04-22T00:50:21.118Z,14.80
2018-04-22T00:52:52.573Z,13.80
2018-04-22T00:55:23.195Z,13.10
2018-04-22T00:57:53.670Z,14.70
2018-04-22T01:00:24.345Z,15.77
2018-04-22T01:02:55.099Z,11.33
2018-04-22T01:05:23.278Z,13.27
2018-04-22T01:07:52.996Z,14.73
2018-04-22T01:10:21.087Z,16.17
2018-04-22T01:12:51.051Z,14.20
2018-04-22T01:15:20.223Z,17.73
2018-04-22T01:17:51.738Z,12.80
2018-04-22T01:20:21.000Z,15.63
2018-04-22T01:22:49.494Z,22.53
2018-04-22T01:25:19.376Z,19.00
2018-04-22T01:27:48.563Z,15.43
2018-04-22T01:30:18.430Z,14.17
2018-04-22T01:32:48.454Z,12.33
2018-04-22T01:35:16.758Z,15.23
2018-04-22T01:37:45.669Z,12.57
2018-04-22T01:40:14.817Z,18.40
2018-04-22T01:42:42.942Z,14.13
2018-04-22T01:45:13.581Z,19.53
2018-04-22T01:47:44.208Z,15.60
2018-04-22T01:50:13.273Z,26.73
2018-04-22T01:52:42.422Z,16.90
2018-04-22T01:55:10.044Z,15.13
2018-04-22T01:57:40.397Z,18.10
2018-04-22T02:00:07.980Z,14.40
2018-04-22T02:02:36.158Z,17.10
2018-04-22T02:05:05.306Z,17.43
2018-04-22T02:07:35.120Z,16.10
2018-04-22T02:10:03.541Z,17.73
2018-04-22T02:12:32.022Z,19.30
2018-04-22T02:14:59.689Z,14.23
2018-04-22T02:17:27.800Z,19.43
2018-04-22T02:19:57.726Z,14.30
2018-04-22T02:22:26.057Z,18.43
2018-04-22T02:24:53.656Z,16.97
2018-04-22T02:27:23.043Z,14.63
2018-04-22T02:29:51.542Z,17.80
2018-04-22T02:32:21.593Z,20.10
2018-04-22T02:34:50.058Z,21.33
2018-04-22T02:37:20.682Z,18.10
2018-04-22T02:39:50.113Z,18.90
2018-04-22T02:42:20.084Z,18.60
2018-04-22T02:44:50.022Z,23.97
2018-04-22T02:47:20.203Z,21.80
2018-04-22T02:49:48.651Z,24.43
2018-04-22T02:52:17.138Z,16.70
2018-04-22T02:54:45.625Z,18.80
2018-04-22T02:57:16.628Z,22.23
2018-04-22T02:59:44.789Z,18.43
2018-04-22T03:02:12.390Z,21.80
2018-04-22T03:04:40.035Z,20.63
2018-04-22T03:07:08.341Z,20.77
2018-04-22T03:09:37.523Z,22.43
2018-04-22T03:12:06.785Z,23.23
2018-04-22T03:14:34.946Z,27.77
2018-04-22T03:17:03.376Z,19.70
2018-04-22T03:19:33.383Z,20.73
2018-04-22T03:22:01.159Z,21.23
2018-04-22T03:24:28.821Z,17.10
2018-04-22T03:26:57.006Z,22.43
2018-04-22T03:29:24.677Z,21.30
2018-04-22T03:31:52.274Z,17.40
2018-04-22T03:34:20.791Z,18.80
2018-04-22T03:36:48.888Z,22.17
2018-04-22T03:39:17.072Z,21.13
2018-04-22T03:41:44.663Z,21.33
2018-04-22T03:44:12.262Z,22.90
2018-04-22T03:46:39.886Z,21.17
2018-04-22T03:49:07.470Z,19.33
2018-04-22T03:51:35.113Z,19.87
2018-04-22T03:54:02.701Z,19.67
2018-04-22T03:56:30.309Z,23.13
2018-04-22T03:58:58.735Z,26.97
2018-04-22T04:01:27.067Z,21.73
2018-04-22T04:03:55.403Z,20.90
2018-04-22T04:06:23.042Z,22.13
2018-04-22T04:08:50.618Z,25.27
2018-04-22T04:11:18.240Z,18.03
2018-04-22T04:13:45.861Z,19.30
2018-04-22T04:16:13.473Z,19.33
2018-04-22T04:19:01.808Z,19.80
2018-04-22T04:21:41.155Z,25.97
2018-04-22T04:27:22.026Z,21.40
2018-04-22T04:29:50.321Z,20.87
2018-04-22T04:32:17.864Z,20.80
2018-04-22T04:34:46.163Z,24.57
2018-04-22T04:37:13.762Z,29.03
2018-04-22T04:39:41.373Z,26.13
2018-04-22T04:42:08.991Z,22.77
2018-04-22T04:44:36.615Z,20.47
2018-04-22T04:47:04.188Z,23.10
2018-04-22T04:49:33.058Z,19.90
2018-04-22T04:52:00.705Z,19.97
2018-04-22T04:54:28.280Z,23.23
2018-04-22T04:56:55.884Z,19.90
2018-04-22T04:59:23.494Z,18.47
2018-04-22T05:01:51.134Z,21.93
2018-04-22T05:04:18.797Z,19.60
2018-04-22T05:06:46.395Z,21.50
2018-04-22T05:09:14.005Z,17.87
2018-04-22T05:11:42.373Z,18.00
2018-04-22T05:14:10.010Z,19.93
2018-04-22T05:29:55.522Z,19.30
2018-04-22T05:32:23.095Z,21.13
2018-04-22T05:34:50.725Z,18.77
2018-04-22T05:37:18.361Z,19.63
2018-04-22T05:39:45.947Z,21.20
2018-04-22T05:42:13.801Z,20.00
2018-04-22T05:44:41.375Z,23.10
2018-04-22T05:47:08.981Z,19.30
2018-04-22T05:49:36.574Z,24.50
2018-04-22T05:52:04.201Z,21.00
2018-04-22T05:54:31.789Z,20.60
2018-04-22T05:56:59.406Z,18.50
2018-04-22T05:59:28.945Z,22.57
2018-04-22T06:01:56.565Z,21.60
2018-04-22T06:04:42.050Z,21.50
2018-04-22T06:07:09.686Z,20.03
2018-04-22T06:09:40.014Z,23.30
2018-04-22T06:12:08.400Z,17.67
2018-04-22T06:14:36.838Z,23.30
2018-04-22T06:17:04.474Z,24.60
2018-04-22T06:19:32.077Z,21.03
2018-04-22T06:27:50.858Z,16.30
2018-04-22T06:30:18.465Z,15.67
2018-04-22T06:32:46.105Z,17.90
2018-04-22T06:35:13.734Z,17.87
2018-04-22T06:37:47.937Z,14.10
2018-04-22T06:40:15.648Z,13.67
2018-04-22T06:42:43.249Z,16.30
2018-04-22T06:45:10.931Z,15.43
2018-04-22T06:47:38.596Z,14.07
2018-04-22T06:50:20.596Z,10.80
2018-04-22T06:52:48.197Z,12.30
2018-04-22T06:55:16.571Z,19.40
2018-04-22T06:57:44.977Z,16.33
2018-04-22T07:00:12.642Z,9.90
2018-04-22T07:02:40.267Z,13.60
2018-04-22T07:05:08.643Z,12.80
2018-04-22T07:07:36.314Z,11.10
2018-04-22T07:10:04.711Z,13.77
2018-04-22T07:12:32.326Z,12.47
2018-04-22T07:14:59.945Z,11.87
2018-04-22T07:17:27.591Z,15.90
2018-04-22T07:19:55.215Z,12.67
2018-04-22T07:22:27.397Z,11.10
2018-04-22T07:24:55.795Z,15.47
2018-04-22T07:27:23.395Z,13.43
2018-04-22T07:29:51.034Z,14.23
2018-04-22T07:32:19.441Z,18.87
2018-04-22T07:34:47.087Z,8.80
2018-04-22T07:37:14.677Z,11.57
2018-04-22T07:39:42.408Z,10.90
2018-04-22T07:42:29.992Z,14.40
2018-04-22T07:45:00.803Z,11.43
2018-04-22T07:53:26.240Z,12.33
2018-04-22T07:55:53.858Z,16.03
2018-04-22T07:58:21.450Z,13.10
2018-04-22T08:00:49.089Z,14.17
2018-04-22T08:03:16.670Z,14.57
2018-04-22T08:05:44.288Z,10.90
2018-04-22T08:08:11.934Z,12.30
2018-04-22T08:10:40.295Z,13.40
2018-04-22T08:13:07.932Z,12.37
2018-04-22T08:15:39.817Z,13.17
2018-04-22T08:18:07.492Z,15.90
2018-04-22T08:20:35.135Z,11.30
2018-04-22T08:23:02.749Z,12.70
2018-04-22T08:25:30.362Z,14.50
2018-04-22T08:27:57.998Z,12.57
2018-04-22T08:30:25.653Z,14.80
2018-04-22T08:32:53.279Z,14.50
2018-04-22T08:35:20.917Z,9.43
2018-04-22T08:37:48.566Z,14.23
2018-04-22T08:40:16.207Z,11.90
2018-04-22T08:42:43.874Z,10.23
2018-04-22T08:45:11.498Z,9.03
2018-04-22T08:47:39.110Z,8.90
2018-04-22T08:50:06.772Z,9.13
2018-04-22T08:52:34.460Z,8.27
2018-04-22T08:55:02.173Z,8.63
2018-04-22T08:57:29.875Z,8.10
2018-04-22T08:59:57.486Z,10.93
2018-04-22T09:02:25.168Z,9.93
2018-04-22T09:04:52.850Z,12.93
2018-04-22T09:07:20.510Z,11.00
2018-04-22T09:09:48.178Z,7.73
2018-04-22T09:19:55.973Z,6.40
2018-04-22T09:25:35.716Z,7.97
2018-04-22T09:28:04.083Z,5.57
2018-04-22T09:30:32.463Z,5.50
2018-04-22T09:33:01.691Z,5.77
2018-04-22T09:35:29.395Z,7.33
2018-04-22T09:37:56.956Z,5.90
2018-04-22T09:40:24.557Z,5.67
2018-04-22T09:42:52.122Z,4.80
2018-04-22T09:45:19.718Z,5.97
2018-04-22T09:47:47.373Z,9.20
2018-04-22T09:50:14.949Z,5.83
2018-04-22T09:52:42.587Z,6.90
2018-04-22T09:55:10.138Z,10.23
2018-04-22T09:57:37.716Z,5.00
2018-04-22T10:00:06.253Z,6.10
2018-04-22T10:02:34.665Z,4.80
2018-04-22T10:05:08.220Z,5.60
2018-04-22T10:07:36.601Z,6.33
2018-04-22T10:10:04.987Z,4.33
2018-04-22T10:12:32.701Z,8.23
2018-04-22T10:15:01.237Z,6.43
2018-04-22T10:17:28.901Z,4.57
2018-04-22T10:19:56.527Z,5.47
2018-04-22T10:22:24.113Z,13.27
2018-04-22T10:24:51.703Z,7.63
2018-04-22T10:27:19.345Z,7.83
2018-04-22T10:29:46.941Z,5.80
2018-04-22T10:32:14.501Z,4.43
2018-04-22T10:34:42.163Z,4.17
2018-04-22T10:37:09.786Z,4.80
2018-04-22T10:39:37.410Z,5.13
2018-04-22T10:42:05.008Z,9.30
2018-04-22T10:44:33.337Z,4.47
2018-04-22T10:47:00.895Z,6.30
2018-04-22T10:49:28.515Z,7.40
2018-04-22T10:51:56.106Z,4.77
2018-04-22T10:54:23.745Z,4.33
2018-04-22T10:56:51.345Z,5.13
2018-04-22T10:59:19.016Z,5.30
2018-04-22T11:01:46.616Z,5.23
2018-04-22T11:04:22.262Z,6.80
2018-04-22T11:06:49.933Z,7.47
2018-04-22T11:09:17.497Z,4.67
2018-04-22T11:11:45.118Z,5.83
2018-04-22T11:14:12.695Z,5.93
2018-04-22T11:16:40.321Z,5.30
2018-04-22T11:19:07.984Z,4.23
2018-04-22T11:21:35.636Z,4.63
2018-04-22T11:24:03.272Z,6.13
2018-04-22T11:26:30.965Z,5.13
2018-04-22T11:28:58.592Z,3.90
2018-04-22T11:31:26.975Z,5.40
2018-04-22T11:34:01.521Z,4.43
2018-04-22T11:36:29.118Z,7.13
2018-04-22T11:38:57.512Z,5.83
2018-04-22T11:41:25.145Z,5.37
2018-04-22T11:43:52.748Z,8.57
2018-04-22T11:46:21.083Z,4.63
2018-04-22T11:48:48.694Z,4.50
2018-04-22T11:51:16.301Z,4.17
2018-04-22T11:53:43.886Z,6.57
2018-04-22T11:56:11.505Z,6.50
2018-04-22T11:58:39.105Z,5.40
2018-04-22T12:01:06.746Z,8.00
2018-04-22T12:03:34.271Z,7.13
2018-04-22T12:06:01.845Z,5.53
2018-04-22T12:08:29.429Z,5.60
2018-04-22T12:10:57.799Z,8.80
2018-04-22T12:13:25.367Z,4.90
2018-04-22T12:15:53.694Z,5.00
2018-04-22T12:18:21.318Z,7.20
2018-04-22T12:20:48.893Z,3.50
2018-04-22T12:23:16.493Z,4.00
2018-04-22T12:25:44.057Z,7.43
2018-04-22T12:28:24.261Z,9.63
2018-04-22T12:30:51.866Z,4.43
2018-04-22T12:33:21.022Z,5.10
2018-04-22T12:35:49.442Z,7.47
2018-04-22T12:38:17.830Z,4.00
2018-04-22T12:40:45.438Z,7.30
2018-04-22T12:43:13.057Z,4.23
2018-04-22T12:45:42.036Z,8.27
2018-04-22T12:48:11.177Z,7.53
2018-04-22T12:50:39.325Z,5.40
2018-04-22T12:53:08.484Z,9.77
2018-04-22T12:55:40.296Z,8.60
2018-04-22T12:58:18.677Z,4.87
2018-04-22T13:00:51.738Z,4.47
2018-04-22T13:03:27.678Z,4.90
2018-04-22T13:06:00.915Z,7.47
2018-04-22T13:08:29.639Z,8.53
2018-04-22T13:10:58.020Z,7.60
2018-04-22T13:13:25.598Z,4.60
2018-04-22T13:16:05.616Z,5.77
2018-04-22T13:18:34.894Z,8.90
2018-04-22T13:21:03.019Z,10.60
2018-04-22T13:23:32.378Z,22.53
2018-04-22T13:25:59.989Z,11.40
2018-04-22T13:28:28.418Z,13.77
2018-04-22T13:31:16.369Z,16.43
2018-04-22T13:33:44.823Z,15.43
2018-04-22T13:39:05.992Z,6.07
2018-04-22T13:41:35.260Z,11.33
2018-04-22T13:44:04.470Z,7.00
2018-04-22T13:46:56.821Z,6.50
2018-04-22T13:49:25.224Z,6.03
2018-04-22T13:51:52.809Z,6.17
2018-04-22T13:54:20.450Z,8.37
2018-04-22T13:56:49.621Z,4.60
2018-04-22T13:59:19.460Z,8.70
2018-04-22T14:01:49.339Z,4.70
2018-04-22T14:04:18.648Z,5.80
2018-04-22T14:06:48.469Z,5.30
2018-04-22T14:09:16.124Z,5.90
2018-04-22T14:11:45.539Z,7.63
2018-04-22T14:14:14.031Z,10.30
2018-04-22T14:16:43.897Z,7.83
2018-04-22T14:19:12.489Z,6.30
2018-04-22T14:21:40.057Z,4.73
2018-04-22T14:24:09.981Z,5.33
2018-04-22T14:26:38.193Z,4.00
2018-04-22T14:29:07.168Z,5.47
2018-04-22T14:31:36.528Z,6.97
2018-04-22T14:34:05.812Z,8.70
2018-04-22T14:36:34.911Z,4.37
2018-04-22T14:39:04.065Z,5.13
2018-04-22T14:41:33.235Z,7.73
2018-04-22T14:44:13.528Z,5.13
2018-04-22T14:46:43.139Z,5.17
2018-04-22T14:49:13.004Z,6.07
2018-04-22T14:51:43.074Z,5.63
2018-04-22T14:54:12.073Z,7.03
2018-04-22T14:56:40.713Z,5.73
2018-04-22T14:59:08.383Z,5.60
2018-04-22T15:01:35.950Z,5.77
2018-04-22T15:04:04.390Z,7.57
2018-04-22T15:09:34.587Z,5.00
2018-04-22T15:18:03.161Z,5.53
2018-04-22T15:20:31.505Z,7.07
2018-04-22T15:23:01.214Z,5.63
2018-04-22T15:25:30.779Z,5.73
2018-04-22T15:27:58.791Z,4.23
2018-04-22T15:36:31.125Z,3.90
2018-04-22T15:39:22.859Z,4.30
2018-04-22T15:41:54.203Z,6.27
2018-04-22T15:44:24.631Z,8.30
2018-04-22T15:46:54.447Z,6.50
2018-04-22T15:49:24.189Z,4.00
2018-04-22T15:51:54.049Z,5.27
2018-04-22T15:54:23.978Z,5.70
2018-04-22T15:59:48.909Z,3.60
2018-04-22T16:02:18.770Z,6.27
2018-04-22T16:04:49.274Z,6.43
2018-04-22T16:07:17.503Z,3.60
2018-04-22T16:09:45.636Z,5.33
2018-04-22T16:12:14.826Z,3.97
2018-04-22T16:14:43.349Z,7.57
2018-04-22T16:17:11.828Z,6.87
2018-04-22T16:19:41.023Z,3.93
2018-04-22T16:22:08.680Z,4.73
2018-04-22T16:24:36.980Z,6.70
2018-04-22T16:27:05.485Z,4.70
2018-04-22T16:29:35.317Z,5.27
2018-04-22T16:32:02.876Z,5.17
2018-04-22T16:34:30.450Z,8.70
2018-04-22T16:36:58.022Z,5.00
2018-04-22T16:39:26.520Z,4.37
2018-04-22T16:41:54.082Z,7.67
2018-04-22T16:44:22.393Z,4.80
2018-04-22T16:46:49.977Z,7.30
2018-04-22T16:49:17.561Z,5.57
2018-04-22T16:51:45.124Z,4.70
2018-04-22T16:54:13.585Z,9.80
2018-04-22T16:56:41.142Z,10.90
2018-04-22T16:59:09.323Z,6.70
2018-04-22T17:01:36.923Z,7.70
2018-04-22T17:04:05.038Z,6.97
2018-04-22T17:06:33.458Z,6.50
2018-04-22T17:09:01.116Z,6.53
2018-04-22T17:11:28.658Z,4.87
2018-04-22T17:13:56.289Z,6.00
2018-04-22T17:16:24.662Z,6.03
2018-04-22T17:19:10.950Z,7.43
2018-04-22T17:21:39.350Z,6.63
2018-04-22T17:24:06.950Z,5.63
2018-04-22T17:26:34.569Z,7.07
2018-04-22T17:35:07.135Z,5.53
2018-04-22T17:37:34.757Z,9.20
2018-04-22T17:40:02.323Z,6.93
2018-04-22T17:42:30.007Z,5.40
2018-04-22T17:44:57.603Z,7.60
2018-04-22T17:47:26.030Z,8.83
2018-04-22T17:53:03.744Z,9.00
2018-04-22T17:55:31.810Z,10.63
2018-04-22T17:57:59.420Z,18.13
2018-04-22T18:00:27.413Z,11.33
2018-04-22T18:02:55.751Z,11.40
2018-04-22T18:05:36.249Z,8.83
2018-04-22T18:08:05.710Z,7.73
2018-04-22T18:10:33.302Z,6.77
2018-04-22T18:13:00.837Z,8.93
2018-04-22T18:15:42.048Z,9.37
2018-04-22T18:18:10.697Z,8.00
2018-04-22T18:20:40.051Z,7.63
2018-04-22T18:23:12.877Z,7.50
2018-04-22T18:25:42.613Z,5.20
2018-04-22T18:28:11.848Z,7.97
2018-04-22T18:30:39.436Z,7.77
2018-04-22T18:33:08.086Z,8.23
2018-04-22T18:35:38.832Z,8.20
2018-04-22T18:38:08.651Z,6.53
2018-04-22T18:40:38.374Z,8.20
2018-04-22T18:43:08.242Z,7.03
2018-04-22T18:45:38.918Z,6.90
2018-04-22T18:48:09.271Z,5.83
2018-04-22T18:50:39.046Z,9.47
2018-04-22T18:53:09.000Z,6.90
2018-04-22T18:55:38.831Z,7.00
2018-04-22T18:58:08.643Z,9.67
2018-04-22T19:00:39.035Z,7.80
2018-04-22T19:03:08.938Z,9.30
2018-04-22T19:05:38.794Z,4.70
2018-04-22T19:08:06.617Z,5.20
2018-04-22T19:13:39.866Z,8.80
2018-04-22T19:19:12.964Z,5.63
2018-04-22T19:21:54.444Z,5.63
2018-04-22T19:24:22.161Z,5.47
2018-04-22T19:29:55.921Z,9.43
2018-04-22T19:32:43.006Z,8.87
2018-04-22T19:35:13.468Z,11.13
2018-04-22T19:37:44.105Z,11.80
2018-04-22T19:40:13.549Z,8.17
2018-04-22T19:42:44.051Z,5.60
2018-04-22T19:45:13.935Z,8.30
2018-04-22T19:47:43.827Z,7.50
2018-04-22T19:50:14.174Z,11.50
2018-04-22T19:52:44.023Z,6.87
2018-04-22T19:55:13.896Z,6.00
2018-04-22T19:57:43.777Z,6.53
2018-04-22T20:00:14.347Z,6.60
2018-04-22T20:02:44.114Z,6.93
2018-04-22T20:05:13.807Z,9.43
2018-04-22T20:07:44.516Z,10.07
2018-04-22T20:10:14.453Z,8.17
2018-04-22T20:12:44.344Z,6.03
2018-04-22T20:15:14.131Z,9.97
2018-04-22T20:17:43.834Z,6.30
2018-04-22T20:20:13.218Z,5.57
2018-04-22T20:22:43.734Z,4.83
2018-04-22T20:25:14.189Z,6.83
2018-04-22T20:27:43.952Z,6.60
2018-04-22T20:30:13.821Z,6.37
2018-04-22T20:32:43.000Z,4.90
2018-04-22T20:35:12.862Z,7.20
2018-04-22T20:37:42.575Z,8.83
2018-04-22T20:40:12.143Z,6.50
2018-04-22T20:42:43.156Z,13.27
2018-04-22T20:45:12.991Z,7.30
2018-04-22T20:47:42.740Z,6.90
2018-04-22T20:50:12.654Z,9.37
2018-04-22T20:52:42.005Z,7.20
2018-04-22T20:55:12.658Z,6.70
2018-04-22T20:57:42.506Z,6.90
2018-04-22T21:00:12.295Z,10.67
2018-04-22T21:02:41.367Z,6.77
2018-04-22T21:05:11.961Z,10.00
2018-04-22T21:07:42.448Z,9.03
2018-04-22T21:10:12.231Z,5.83
2018-04-22T21:12:42.073Z,7.73
2018-04-22T21:15:11.811Z,8.20
2018-04-22T21:17:42.487Z,6.17
2018-04-22T21:20:12.379Z,9.63
2018-04-22T21:22:42.318Z,6.97
2018-04-22T21:25:12.152Z,5.10
2018-04-22T21:27:42.061Z,7.30
2018-04-22T21:30:11.790Z,9.60
2018-04-22T21:32:41.654Z,5.13
2018-04-22T21:35:11.157Z,6.43
2018-04-22T21:37:42.009Z,7.60
2018-04-22T21:40:11.692Z,6.77
2018-04-22T21:42:42.331Z,5.60
2018-04-22T21:45:12.823Z,5.20
2018-04-22T21:47:43.439Z,10.50
2018-04-22T21:50:12.903Z,6.97
2018-04-22T21:52:41.228Z,4.63
2018-04-22T21:55:10.931Z,7.10
2018-04-22T21:57:40.581Z,5.70
2018-04-22T22:00:10.154Z,7.13
2018-04-22T22:02:38.270Z,8.40
2018-04-22T22:05:08.268Z,5.80
2018-04-22T22:07:38.152Z,6.90
2018-04-22T22:10:07.920Z,7.20
2018-04-22T22:12:38.620Z,10.10
2018-04-22T22:15:08.507Z,8.17
2018-04-22T22:17:38.369Z,8.90
2018-04-22T22:20:09.759Z,13.57
2018-04-22T22:22:39.632Z,7.00
2018-04-22T22:25:09.366Z,6.40
2018-04-22T22:27:39.230Z,7.13
2018-04-22T22:30:09.370Z,9.83
2018-04-22T22:32:37.879Z,8.33
2018-04-22T22:35:09.099Z,12.33
2018-04-22T22:37:39.744Z,5.17
2018-04-22T22:40:10.661Z,6.00
2018-04-22T22:42:41.116Z,6.30
2018-04-22T22:45:10.944Z,7.93
2018-04-22T22:47:40.654Z,6.47
2018-04-22T22:50:10.566Z,8.57
2018-04-22T22:52:40.308Z,10.40
2018-04-22T22:55:08.223Z,8.40
2018-04-22T22:57:37.793Z,6.47
2018-04-22T23:00:07.558Z,9.70
2018-04-22T23:02:36.669Z,7.33
2018-04-22T23:05:07.164Z,10.40
2018-04-22T23:07:37.782Z,10.50
2018-04-22T23:10:08.387Z,6.93
2018-04-22T23:12:38.239Z,6.00
2018-04-22T23:15:08.123Z,5.80
2018-04-22T23:17:38.802Z,6.13
2018-04-22T23:20:08.521Z,6.23
2018-04-22T23:22:38.337Z,7.07
2018-04-22T23:25:08.179Z,7.40
2018-04-22T23:27:35.738Z,8.80
2018-04-22T23:30:05.935Z,8.13
2018-04-22T23:32:35.063Z,6.07
2018-04-22T23:35:04.622Z,6.57
2018-04-22T23:37:35.708Z,4.90
2018-04-22T23:40:05.553Z,4.90
2018-04-22T23:42:35.308Z,7.90
2018-04-22T23:45:05.171Z,6.07
2018-04-22T23:47:34.584Z,8.63
2018-04-22T23:50:05.198Z,12.40
2018-04-22T23:52:33.538Z,7.13
2018-04-22T23:55:03.352Z,7.00
2018-04-22T23:57:32.980Z,11.43
